Time;durP1;ratioP1;P1;durP2;ratioP2;P2;SDS_P1;SDS_P2;PMS_P1;PMS_P2;Temp;Humidity;BMP_temperature;BMP_pressure;BME280_temperature;BME280_humidity;BME280_pressure;Samples;Min_cycle;Max_cycle;Signal;HPM_P1;HPM_P2
2023/03/02 05:32:30;;;;;;;17.23;10.35;;;1.40;73.50;;;;;;6123149;23;20088;-80
2023/03/02 05:34:57;;;;;;;17.33;10.38;;;1.40;73.30;;;;;;6101309;23;20438;-80
2023/03/02 05:37:22;;;;;;;18.95;11.77;;;1.50;73.20;;;;;;6129074;23;20057;-80
2023/03/02 05:39:48;;;;;;;12.82;8.73;;;1.40;73.20;;;;;;6129447;23;20017;-81
2023/03/02 05:42:13;;;;;;;20.30;10.18;;;1.40;73.20;;;;;;6128765;23;20002;-79
2023/03/02 05:44:39;;;;;;;16.20;10.02;;;1.30;73.30;;;;;;6103129;23;20017;-76
2023/03/02 05:47:05;;;;;;;17.73;11.57;;;1.30;73.60;;;;;;6102441;23;20442;-75
2023/03/02 05:49:30;;;;;;;11.55;10.32;;;1.20;73.80;;;;;;6128889;23;20468;-78
2023/03/02 05:52:13;;;;;;;20.55;11.38;;;1.20;73.80;;;;;;6102550;23;20009;-79
2023/03/02 05:54:39;;;;;;;15.57;9.93;;;1.20;73.90;;;;;;6129016;23;20013;-76
2023/03/02 05:57:06;;;;;;;28.75;13.07;;;1.20;74.10;;;;;;6101893;23;20010;-75
2023/03/02 05:59:31;;;;;;;20.35;11.63;;;1.10;74.10;;;;;;6125222;23;20450;-75
2023/03/02 06:01:58;;;;;;;13.95;9.82;;;1.10;74.20;;;;;;6126342;23;20064;-76
2023/03/02 06:04:24;;;;;;;20.45;11.40;;;1.10;74.20;;;;;;6127527;23;20311;-76
2023/03/02 06:06:50;;;;;;;18.67;9.73;;;1.20;74.30;;;;;;6128509;23;20013;-77
2023/03/02 06:09:15;;;;;;;22.63;13.02;;;1.10;74.30;;;;;;6128499;23;20005;-77
2023/03/02 06:11:41;;;;;;;21.38;12.02;;;1.10;74.30;;;;;;6130078;23;20009;-76
2023/03/02 06:14:07;;;;;;;22.42;13.05;;;1.10;74.40;;;;;;6129280;23;20034;-76
2023/03/02 06:16:32;;;;;;;18.73;13.07;;;1.00;74.60;;;;;;6129108;23;20002;-76
2023/03/02 06:18:58;;;;;;;23.77;12.25;;;1.00;74.80;;;;;;6129093;23;20026;-77
2023/03/02 06:21:24;;;;;;;20.48;12.38;;;1.00;74.90;;;;;;6102825;23;20009;-76
2023/03/02 06:23:50;;;;;;;18.05;12.90;;;1.00;75.10;;;;;;6127958;23;20308;-77
2023/03/02 06:26:15;;;;;;;20.38;11.38;;;1.00;75.10;;;;;;6127957;23;20008;-77
2023/03/02 06:28:41;;;;;;;16.95;10.88;;;0.90;75.20;;;;;;6126910;23;20026;-77
2023/03/02 06:31:07;;;;;;;13.35;11.20;;;0.90;75.50;;;;;;6127805;23;20022;-77
2023/03/02 06:33:32;;;;;;;22.33;11.27;;;1.00;75.40;;;;;;6128321;23;20006;-77
2023/03/02 06:35:58;;;;;;;19.13;10.40;;;1.10;75.20;;;;;;6127582;23;20450;-77
2023/03/02 06:38:23;;;;;;;28.08;11.25;;;1.10;75.10;;;;;;6127277;23;20474;-76
2023/03/02 06:40:49;;;;;;;22.00;11.05;;;1.10;75.00;;;;;;6127706;23;20085;-77
2023/03/02 06:43:15;;;;;;;23.55;14.57;;;1.00;75.10;;;;;;6101394;23;20036;-76
2023/03/02 06:45:40;;;;;;;18.92;10.35;;;1.00;75.20;;;;;;6101344;23;20464;-77
2023/03/02 06:48:06;;;;;;;20.23;11.98;;;1.00;75.30;;;;;;6127591;23;20006;-76
2023/03/02 06:50:33;;;;;;;18.25;12.63;;;1.00;75.40;;;;;;6128190;23;20002;-77
2023/03/02 06:52:58;;;;;;;25.85;16.63;;;1.00;75.30;;;;;;6128236;23;20067;-77
2023/03/02 06:55:24;;;;;;;24.58;15.35;;;1.00;75.20;;;;;;6129024;23;20006;-77
2023/03/02 06:57:50;;;;;;;29.00;17.48;;;1.10;75.10;;;;;;6128740;23;20002;-77
2023/03/02 07:00:17;;;;;;;24.70;16.30;;;1.00;75.10;;;;;;6128126;23;20013;-77
2023/03/02 07:02:45;;;;;;;21.25;14.75;;;0.90;75.20;;;;;;6128102;23;20040;-77
2023/03/02 07:05:11;;;;;;;25.73;13.70;;;1.00;75.30;;;;;;6128717;23;20058;-77
2023/03/02 07:07:37;;;;;;;25.00;12.98;;;0.90;75.50;;;;;;6128490;23;20442;-77
2023/03/02 07:10:04;;;;;;;23.67;12.52;;;0.90;75.60;;;;;;6128590;23;20341;-77
2023/03/02 07:12:30;;;;;;;28.02;14.75;;;1.00;75.70;;;;;;6128869;23;20006;-77
2023/03/02 07:14:55;;;;;;;24.63;15.18;;;1.00;75.70;;;;;;6128377;23;20335;-77
2023/03/02 07:17:21;;;;;;;26.58;13.25;;;1.10;75.80;;;;;;6128294;23;20477;-77
2023/03/02 07:19:47;;;;;;;23.23;13.48;;;1.10;75.60;;;;;;6128036;23;20392;-77
2023/03/02 07:22:12;;;;;;;22.17;13.05;;;1.20;75.50;;;;;;6128155;23;20006;-77
2023/03/02 07:24:38;;;;;;;20.42;12.57;;;1.20;75.50;;;;;;6128574;23;20006;-77
2023/03/02 07:27:04;;;;;;;23.60;12.55;;;1.20;75.40;;;;;;6128892;23;20006;-77
2023/03/02 07:29:29;;;;;;;25.80;15.02;;;1.30;75.50;;;;;;6127938;23;20006;-77
2023/03/02 07:31:58;;;;;;;29.25;13.57;;;1.40;75.40;;;;;;6128574;23;20010;-77
2023/03/02 07:34:24;;;;;;;18.80;13.68;;;1.40;75.30;;;;;;6103422;23;20011;-77
2023/03/02 07:36:50;;;;;;;20.15;12.57;;;1.60;75.20;;;;;;6130103;23;20005;-77
2023/03/02 07:39:16;;;;;;;23.02;16.08;;;2.10;74.30;;;;;;6129625;23;20002;-78
2023/03/02 07:41:41;;;;;;;22.55;13.73;;;2.70;73.30;;;;;;6130702;23;20396;-78
2023/03/02 07:44:07;;;;;;;30.23;14.52;;;3.60;71.60;;;;;;6130003;23;20338;-78
2023/03/02 07:46:33;;;;;;;22.65;14.73;;;4.80;68.20;;;;;;6130340;23;19998;-78
2023/03/02 07:48:58;;;;;;;25.27;15.50;;;6.00;65.00;;;;;;6130364;23;20002;-78
2023/03/02 07:51:24;;;;;;;19.13;11.88;;;7.00;61.20;;;;;;6130423;23;20150;-78
2023/03/02 07:53:50;;;;;;;28.25;14.93;;;7.70;60.20;;;;;;6129348;23;20006;-78
2023/03/02 07:56:16;;;;;;;22.52;12.98;;;8.20;58.10;;;;;;6129771;23;20434;-78
2023/03/02 07:58:42;;;;;;;22.33;13.45;;;8.50;56.90;;;;;;6129952;23;20010;-78
2023/03/02 08:01:08;;;;;;;25.55;14.13;;;8.70;56.20;;;;;;6129958;23;19998;-79
2023/03/02 08:03:34;;;;;;;26.98;14.65;;;8.80;55.10;;;;;;6130189;23;20009;-79
2023/03/02 08:06:09;;;;;;;24.90;14.77;;;8.70;55.50;;;;;;6104349;23;20002;-79
2023/03/02 08:08:36;;;;;;;24.23;14.95;;;8.70;55.10;;;;;;6130179;23;20021;-78
2023/03/02 08:11:07;;;;;;;24.10;15.10;;;8.70;54.30;;;;;;6129668;23;20041;-79
2023/03/02 08:13:32;;;;;;;23.77;13.95;;;8.40;55.90;;;;;;6129178;23;20022;-79
2023/03/02 08:16:00;;;;;;;25.27;13.45;;;8.50;55.70;;;;;;6130065;23;19998;-78
2023/03/02 08:18:26;;;;;;;26.20;15.70;;;8.50;55.60;;;;;;6129278;23;20005;-79
2023/03/02 08:20:52;;;;;;;26.08;15.45;;;8.70;55.20;;;;;;6129936;23;20005;-79
2023/03/02 08:23:18;;;;;;;23.23;14.85;;;9.00;54.00;;;;;;6130185;23;20009;-79
2023/03/02 08:25:44;;;;;;;28.13;15.88;;;8.90;54.50;;;;;;6129587;23;20498;-79
2023/03/02 08:28:09;;;;;;;23.52;15.65;;;8.80;55.10;;;;;;6129625;23;20006;-79
2023/03/02 08:30:35;;;;;;;24.33;15.57;;;8.90;54.70;;;;;;6128551;23;20018;-79
2023/03/02 08:33:01;;;;;;;22.63;16.27;;;9.10;54.70;;;;;;6129970;23;20006;-79
2023/03/02 08:35:26;;;;;;;25.30;15.85;;;9.30;53.80;;;;;;6129424;23;20008;-79
2023/03/02 08:37:52;;;;;;;25.80;15.10;;;9.30;54.00;;;;;;6130012;23;20062;-79
2023/03/02 08:40:18;;;;;;;24.88;15.13;;;9.20;54.20;;;;;;6129822;23;20033;-79
2023/03/02 08:42:44;;;;;;;25.75;16.38;;;9.50;54.10;;;;;;6103420;23;20013;-79
2023/03/02 08:45:11;;;;;;;21.25;14.80;;;9.80;52.50;;;;;;6129711;23;20013;-79
2023/03/02 08:47:37;;;;;;;26.23;17.05;;;10.00;52.70;;;;;;6129353;23;20324;-79
2023/03/02 08:50:04;;;;;;;25.63;17.63;;;10.40;51.80;;;;;;6128844;23;20016;-80
2023/03/02 08:52:32;;;;;;;23.42;16.20;;;10.80;50.70;;;;;;6129622;23;20029;-79
2023/03/02 08:54:58;;;;;;;26.17;16.05;;;11.20;50.20;;;;;;6129499;23;20034;-80
2023/03/02 08:57:24;;;;;;;25.27;16.42;;;11.80;48.90;;;;;;6129908;23;20005;-79
2023/03/02 08:59:51;;;;;;;20.10;14.38;;;12.20;48.10;;;;;;6129638;23;20513;-79
2023/03/02 09:02:17;;;;;;;26.23;15.95;;;12.30;48.00;;;;;;6129293;23;20002;-80
2023/03/02 09:04:42;;;;;;;25.67;16.92;;;12.30;47.80;;;;;;6129655;23;20599;-80
2023/03/02 09:07:08;;;;;;;26.70;16.80;;;12.20;47.90;;;;;;6128608;23;20002;-80
2023/03/02 09:09:34;;;;;;;25.58;17.25;;;12.40;47.10;;;;;;6129039;23;20081;-80
2023/03/02 09:12:00;;;;;;;25.55;16.05;;;12.70;46.30;;;;;;6129415;23;19998;-80
2023/03/02 09:14:26;;;;;;;28.88;17.63;;;12.90;46.10;;;;;;6129524;23;20002;-80
2023/03/02 09:16:52;;;;;;;27.80;16.70;;;12.90;45.70;;;;;;6103342;23;20025;-80
2023/03/02 09:19:18;;;;;;;28.02;18.00;;;12.50;46.30;;;;;;6129509;23;20002;-79
2023/03/02 09:21:44;;;;;;;27.17;17.10;;;12.10;47.20;;;;;;6129054;23;20005;-79
2023/03/02 09:24:10;;;;;;;24.50;16.58;;;12.20;47.30;;;;;;6129231;23;20002;-80
2023/03/02 09:26:37;;;;;;;24.05;17.20;;;12.20;46.60;;;;;;6128917;23;20029;-80
2023/03/02 09:29:03;;;;;;;27.52;18.92;;;12.50;46.30;;;;;;6128966;23;20092;-81
2023/03/02 09:31:29;;;;;;;26.08;18.00;;;13.10;45.00;;;;;;6129288;23;20014;-79
2023/03/02 09:33:55;;;;;;;23.85;17.35;;;13.40;44.80;;;;;;6128748;23;20013;-80
2023/03/02 09:36:23;;;;;;;28.67;19.17;;;13.70;44.30;;;;;;6129398;23;20869;-79
2023/03/02 09:38:49;;;;;;;25.48;17.67;;;14.30;43.90;;;;;;6129411;23;20013;-80
2023/03/02 09:41:18;;;;;;;31.92;21.58;;;14.70;42.50;;;;;;6129175;23;20006;-77
2023/03/02 09:43:46;;;;;;;28.02;18.58;;;15.00;41.50;;;;;;6128494;23;20002;-80
2023/03/02 09:46:14;;;;;;;22.52;17.50;;;15.10;41.30;;;;;;6128795;23;20434;-77
2023/03/02 09:49:28;;;;;;;24.17;17.48;;;15.30;41.00;;;;;;6129053;23;20002;-79
2023/03/02 09:52:18;;;;;;;24.08;18.33;;;15.20;40.40;;;;;;6116744;23;20013;-80
2023/03/02 09:54:44;;;;;;;23.42;18.33;;;15.20;39.90;;;;;;6129202;23;20339;-80
2023/03/02 09:57:32;;;;;;;24.38;17.35;;;15.30;40.10;;;;;;6128585;23;20025;-79
2023/03/02 10:00:27;;;;;;;24.70;17.75;;;15.30;40.40;;;;;;6128928;23;20006;-79
2023/03/02 10:03:08;;;;;;;23.55;18.15;;;15.00;40.40;;;;;;6109431;23;20029;-79
2023/03/02 10:05:39;;;;;;;26.95;18.15;;;14.90;40.80;;;;;;6128774;23;20012;-79
2023/03/02 10:08:13;;;;;;;23.55;18.55;;;14.80;40.60;;;;;;6129207;23;20085;-79
2023/03/02 10:11:07;;;;;;;22.83;17.65;;;14.70;41.40;;;;;;6128825;23;20610;-79
2023/03/02 10:13:51;;;;;;;21.95;17.05;;;14.40;41.60;;;;;;6109234;23;20034;-80
2023/03/02 10:16:28;;;;;;;25.90;18.98;;;14.10;41.90;;;;;;6128769;23;20002;-79
2023/03/02 10:19:09;;;;;;;22.98;17.77;;;13.70;42.90;;;;;;6129265;23;20069;-79
2023/03/02 10:22:16;;;;;;;27.67;17.77;;;13.40;43.40;;;;;;6127358;23;20006;-79
2023/03/02 10:25:23;;;;;;;30.08;18.60;;;12.80;44.20;;;;;;6121795;23;20538;-79
2023/03/02 10:27:52;;;;;;;25.90;17.35;;;12.40;44.50;;;;;;6128978;23;20359;-79
2023/03/02 10:30:32;;;;;;;29.10;18.47;;;12.00;46.00;;;;;;6128573;23;20033;-79
2023/03/02 10:33:19;;;;;;;28.60;18.95;;;11.30;47.00;;;;;;6129277;23;20379;-79
2023/03/02 10:35:49;;;;;;;36.67;19.42;;;10.80;47.50;;;;;;6128340;23;20006;-79
2023/03/02 10:38:16;;;;;;;;;;;10.50;47.70;;;;;;6129272;23;20077;-78
2023/03/02 10:40:47;;;;;;;28.98;17.05;;;10.20;48.70;;;;;;6101976;23;19900;-78
2023/03/02 10:43:22;;;;;;;32.58;19.88;;;10.10;50.20;;;;;;6128316;23;20080;-78
2023/03/02 10:45:58;;;;;;;31.92;19.30;;;10.00;50.10;;;;;;6128442;23;20002;-78
2023/03/02 10:48:24;;;;;;;32.53;18.27;;;9.90;50.00;;;;;;6128810;23;20002;-78
2023/03/02 10:50:53;;;;;;;27.95;17.48;;;9.80;51.00;;;;;;6128707;23;20009;-78
2023/03/02 10:53:19;;;;;;;32.13;18.10;;;9.80;50.90;;;;;;6128951;23;20137;-78
2023/03/02 10:55:51;;;;;;;29.05;15.90;;;9.70;51.00;;;;;;6128544;23;20002;-78
2023/03/02 10:58:34;;;;;;;26.98;15.57;;;9.70;50.90;;;;;;6127983;23;20002;-77
2023/03/02 11:01:03;;;;;;;30.58;17.00;;;9.80;51.30;;;;;;6127903;23;20016;-78
2023/03/02 11:03:29;;;;;;;29.60;17.40;;;9.80;51.30;;;;;;6128767;23;20006;-77
2023/03/02 11:05:56;;;;;;;30.30;16.38;;;9.80;51.80;;;;;;6128456;23;20010;-76
2023/03/02 11:08:26;;;;;;;36.97;20.75;;;9.80;51.90;;;;;;6103830;23;20010;-79
2023/03/02 11:10:55;;;;;;;;;;;9.80;51.80;;;;;;6130880;23;20040;-79
2023/03/02 11:13:30;;;;;;;32.20;16.83;;;9.80;51.80;;;;;;6105104;23;19904;-79
2023/03/02 11:16:22;;;;;;;37.97;19.85;;;9.80;52.00;;;;;;6103232;23;20012;-77
2023/03/02 11:18:54;;;;;;;33.15;18.83;;;9.80;51.60;;;;;;6114617;23;20347;-79
2023/03/02 11:21:39;;;;;;;30.27;16.73;;;9.80;51.00;;;;;;6104433;23;20472;-80
2023/03/02 11:24:11;;;;;;;28.77;16.42;;;9.80;50.60;;;;;;6130090;23;20072;-81
2023/03/02 11:26:58;;;;;;;28.73;16.02;;;9.80;51.00;;;;;;6130406;23;20013;-81
2023/03/02 11:29:49;;;;;;;25.63;16.15;;;9.90;51.80;;;;;;6130112;23;20009;-81
2023/03/02 11:32:24;;;;;;;25.25;15.30;;;9.90;51.10;;;;;;6123310;23;20029;-81
2023/03/02 11:34:53;;;;;;;29.80;15.73;;;9.90;51.00;;;;;;6129500;23;20002;-81
2023/03/02 11:37:43;;;;;;;33.55;16.83;;;10.00;51.30;;;;;;6130328;23;20009;-81
2023/03/02 11:40:26;;;;;;;26.95;14.70;;;10.00;50.40;;;;;;6129033;23;20383;-81
2023/03/02 11:42:54;;;;;;;31.05;16.33;;;10.00;50.30;;;;;;6130518;23;20068;-81
2023/03/02 11:45:27;;;;;;;30.27;14.95;;;10.00;50.40;;;;;;6130174;23;20009;-81
2023/03/02 11:47:58;;;;;;;27.38;16.05;;;10.00;50.80;;;;;;6130419;23;20006;-82
2023/03/02 11:50:25;;;;;;;29.25;15.85;;;10.10;50.90;;;;;;6130006;23;20012;-78
2023/03/02 11:53:14;;;;;;;27.60;17.92;;;10.20;51.00;;;;;;6129521;23;19998;-77
2023/03/02 11:55:45;;;;;;;34.25;19.70;;;10.20;51.40;;;;;;6130053;23;20335;-77
2023/03/02 11:58:18;;;;;;;33.95;17.42;;;10.20;51.20;;;;;;6129961;23;20079;-78
2023/03/02 12:00:45;;;;;;;32.85;18.10;;;10.20;51.00;;;;;;6130050;23;20005;-79
2023/03/02 12:03:14;;;;;;;35.22;17.85;;;10.20;51.40;;;;;;6129987;23;20033;-77
2023/03/02 12:05:40;;;;;;;31.23;16.60;;;10.20;51.50;;;;;;6130384;23;20009;-77
2023/03/02 12:08:26;;;;;;;29.50;16.42;;;10.30;51.40;;;;;;6129789;23;20002;-79
2023/03/02 12:10:56;;;;;;;28.13;17.05;;;10.20;51.00;;;;;;6129132;23;20029;-76
2023/03/02 12:13:27;;;;;;;30.73;17.52;;;10.20;51.30;;;;;;6129755;23;20085;-76
2023/03/02 12:15:55;;;;;;;;;;;10.10;51.50;;;;;;6130687;23;19998;-76
2023/03/02 12:18:20;;;;;;;29.77;16.75;;;10.20;51.90;;;;;;6129767;23;19901;-82
2023/03/02 12:20:58;;;;;;;30.90;16.80;;;10.20;52.20;;;;;;6129346;23;20026;-80
2023/03/02 12:23:24;;;;;;;31.58;18.13;;;10.20;52.00;;;;;;6130454;23;20049;-84
2023/03/02 12:26:05;;;;;;;26.88;17.63;;;10.20;52.30;;;;;;6104170;23;20006;-82
2023/03/02 12:28:38;;;;;;;28.77;16.38;;;10.30;52.00;;;;;;6103194;23;20010;-81
2023/03/02 12:31:12;;;;;;;26.42;16.10;;;10.30;51.80;;;;;;6129168;23;20018;-79
2023/03/02 12:33:45;;;;;;;27.48;16.90;;;10.30;51.70;;;;;;6103974;23;20002;-81
2023/03/02 12:36:23;;;;;;;26.95;16.63;;;10.30;51.10;;;;;;6103810;23;20061;-82
2023/03/02 12:39:20;;;;;;;31.17;17.90;;;10.30;51.40;;;;;;6129734;23;20355;-83
2023/03/02 12:41:54;;;;;;;34.25;17.70;;;10.30;51.40;;;;;;6061688;23;20056;-85
2023/03/02 12:44:38;;;;;;;30.60;16.83;;;10.30;51.20;;;;;;6103572;23;20006;-83
2023/03/02 12:47:13;;;;;;;34.22;20.25;;;10.30;51.60;;;;;;6103158;23;20010;-83
2023/03/02 12:49:52;;;;;;;34.38;18.48;;;10.30;51.20;;;;;;6103485;23;20113;-84
2023/03/02 12:52:18;;;;;;;31.35;17.42;;;10.40;51.50;;;;;;6129854;23;19998;-83
2023/03/02 12:54:43;;;;;;;33.10;18.95;;;10.40;51.10;;;;;;6129039;23;20012;-83
2023/03/02 12:57:19;;;;;;;32.65;19.75;;;10.40;51.00;;;;;;6129843;23;20478;-84
2023/03/02 12:59:57;;;;;;;26.77;16.85;;;10.40;51.00;;;;;;6129400;23;20002;-84
2023/03/02 13:02:31;;;;;;;30.25;17.38;;;10.50;50.70;;;;;;6129120;23;20070;-84
2023/03/02 13:05:07;;;;;;;28.50;17.10;;;10.50;50.30;;;;;;6103082;23;20086;-84
2023/03/02 13:07:42;;;;;;;33.60;17.90;;;10.50;50.30;;;;;;6103269;23;20346;-85
2023/03/02 13:10:34;;;;;;;31.10;15.48;;;10.50;50.60;;;;;;6129717;23;20002;-85
2023/03/02 13:13:02;;;;;;;34.80;19.55;;;10.60;50.40;;;;;;6128766;23;20708;-85
2023/03/02 13:15:28;;;;;;;29.55;18.33;;;10.70;50.50;;;;;;6130620;23;20009;-81
2023/03/02 13:17:59;;;;;;;33.65;19.80;;;10.70;50.10;;;;;;6106013;23;20347;-85
2023/03/02 13:20:27;;;;;;;29.05;15.80;;;10.70;50.30;;;;;;6103888;23;20013;-88
2023/03/02 13:22:54;;;;;;;34.47;17.80;;;10.70;49.90;;;;;;6102186;23;20044;-83
2023/03/02 13:25:28;;;;;;;38.13;20.40;;;10.70;49.70;;;;;;6102556;23;20006;-83
2023/03/02 13:28:03;;;;;;;31.70;17.75;;;10.70;49.90;;;;;;6127500;23;20001;-83
2023/03/02 13:30:31;;;;;;;32.03;18.48;;;10.70;49.90;;;;;;6127351;23;20060;-83
2023/03/02 13:33:12;;;;;;;29.40;18.15;;;10.70;50.00;;;;;;6099898;23;20089;-85
2023/03/02 13:35:44;;;;;;;28.65;16.83;;;10.70;49.60;;;;;;6127812;23;20013;-86
2023/03/02 13:38:22;;;;;;;27.23;15.07;;;10.70;49.50;;;;;;6128064;23;20101;-85
2023/03/02 13:40:50;;;;;;;29.60;16.20;;;10.70;49.90;;;;;;6101294;23;20010;-85
2023/03/02 13:43:28;;;;;;;34.95;17.33;;;10.80;50.30;;;;;;6101275;23;20076;-85
2023/03/02 13:45:56;;;;;;;29.90;18.80;;;10.80;49.90;;;;;;6101694;23;20010;-86
2023/03/02 13:48:22;;;;;;;32.20;17.55;;;10.80;50.40;;;;;;6128530;23;20454;-85
2023/03/02 13:51:16;;;;;;;28.60;16.58;;;10.80;50.40;;;;;;6102513;23;20033;-80
2023/03/02 13:53:49;;;;;;;31.40;17.65;;;10.80;49.50;;;;;;6112845;23;20057;-76
2023/03/02 13:56:16;;;;;;;31.33;16.98;;;10.90;49.20;;;;;;6127676;23;19998;-78
2023/03/02 13:58:42;;;;;;;34.17;16.80;;;11.00;48.80;;;;;;6128017;23;20032;-77
2023/03/02 14:01:11;;;;;;;33.47;17.70;;;11.00;48.50;;;;;;6127175;23;20002;-76
2023/03/02 14:03:37;;;;;;;31.20;17.40;;;11.10;48.80;;;;;;6101631;23;20010;-76
2023/03/02 14:06:04;;;;;;;27.92;17.20;;;11.20;48.50;;;;;;6127770;23;20017;-76
2023/03/02 14:08:31;;;;;;;32.03;15.70;;;11.20;48.60;;;;;;6102398;23;20014;-76
2023/03/02 14:10:58;;;;;;;28.48;17.17;;;11.20;48.50;;;;;;6128531;23;20006;-76
2023/03/02 14:13:44;;;;;;;30.40;17.95;;;11.20;48.80;;;;;;6128483;23;19998;-76
2023/03/02 14:16:14;;;;;;;34.90;19.27;;;11.30;49.20;;;;;;6128575;23;20513;-77
2023/03/02 14:18:43;;;;;;;28.17;15.77;;;11.20;48.80;;;;;;6128635;23;20009;-77
2023/03/02 14:21:23;;;;;;;30.37;17.00;;;11.20;48.80;;;;;;6103035;23;20056;-77
2023/03/02 14:23:50;;;;;;;30.48;16.38;;;11.20;48.50;;;;;;6128052;23;20238;-77
2023/03/02 14:26:37;;;;;;;32.95;18.13;;;11.20;48.70;;;;;;6127727;23;20470;-76
2023/03/02 14:29:15;;;;;;;39.45;19.35;;;11.20;49.00;;;;;;6127355;23;20486;-76
2023/03/02 14:31:41;;;;;;;33.80;19.17;;;11.30;49.30;;;;;;6127347;23;20076;-76
2023/03/02 14:34:12;;;;;;;30.65;17.23;;;11.30;49.10;;;;;;6127748;23;20561;-76
2023/03/02 14:36:38;;;;;;;29.48;18.73;;;11.20;49.10;;;;;;6127854;23;20446;-76
2023/03/02 14:39:11;;;;;;;32.67;19.05;;;11.20;49.40;;;;;;6126755;23;20446;-77
2023/03/02 14:41:37;;;;;;;34.85;19.05;;;11.20;50.70;;;;;;6127288;23;20049;-76
2023/03/02 14:44:03;;;;;;;30.83;18.88;;;11.20;52.00;;;;;;6127527;23;20002;-77
2023/03/02 14:46:29;;;;;;;35.70;19.70;;;11.20;52.60;;;;;;6127344;23;20058;-76
2023/03/02 14:48:54;;;;;;;40.00;23.52;;;11.30;52.90;;;;;;6126885;23;20006;-77
2023/03/02 14:51:24;;;;;;;38.13;21.13;;;11.30;53.10;;;;;;6127817;23;20521;-77
2023/03/02 14:53:52;;;;;;;41.00;22.57;;;11.30;53.20;;;;;;6127455;23;20002;-77
2023/03/02 14:56:23;;;;;;;36.45;22.48;;;11.40;53.20;;;;;;6127396;23;20025;-77
2023/03/02 14:58:50;;;;;;;32.38;20.50;;;11.20;53.40;;;;;;6127281;23;20001;-77
2023/03/02 15:01:16;;;;;;;38.67;21.35;;;11.20;53.50;;;;;;6100595;23;20010;-80
2023/03/02 15:03:42;;;;;;;36.20;18.52;;;11.20;53.20;;;;;;6126719;23;20006;-77
2023/03/02 15:06:28;;;;;;;50.00;19.95;;;11.00;53.20;;;;;;6127398;23;20002;-76
2023/03/02 15:08:56;;;;;;;36.60;21.50;;;11.00;53.60;;;;;;6101572;23;20013;-76
2023/03/02 15:11:22;;;;;;;33.88;19.27;;;10.80;53.70;;;;;;6126045;23;20017;-75
2023/03/02 15:13:47;;;;;;;39.75;20.23;;;10.80;53.90;;;;;;6102796;23;20342;-75
2023/03/02 15:16:14;;;;;;;36.15;19.05;;;10.70;54.10;;;;;;6127838;23;20068;-76
2023/03/02 15:18:40;;;;;;;34.60;17.92;;;10.70;54.30;;;;;;6128678;23;20010;-76
2023/03/02 15:21:06;;;;;;;34.92;20.00;;;10.80;54.20;;;;;;6128050;23;20029;-76
2023/03/02 15:23:32;;;;;;;37.25;19.60;;;10.70;54.30;;;;;;6102623;23;20435;-76
2023/03/02 15:26:02;;;;;;;40.13;21.35;;;10.70;54.50;;;;;;6102400;23;20398;-75
2023/03/02 15:28:28;;;;;;;34.60;19.27;;;10.80;54.80;;;;;;6102679;23;20014;-76
2023/03/02 15:30:55;;;;;;;38.40;20.48;;;10.80;54.10;;;;;;6128122;23;20017;-76
2023/03/02 15:33:20;;;;;;;39.03;20.38;;;10.80;54.00;;;;;;6128281;23;20069;-75
2023/03/02 15:35:51;;;;;;;44.67;22.55;;;10.80;53.80;;;;;;6127703;23;20057;-75
2023/03/02 15:38:17;;;;;;;32.67;19.80;;;10.80;53.90;;;;;;6102844;23;20002;-76
2023/03/02 15:40:43;;;;;;;39.22;20.95;;;10.80;53.90;;;;;;6102221;23;20066;-76
2023/03/02 15:43:08;;;;;;;35.00;19.08;;;10.80;54.30;;;;;;6102825;23;20013;-75
2023/03/02 15:45:34;;;;;;;39.65;19.73;;;10.70;54.50;;;;;;6128591;23;20082;-76
2023/03/02 15:48:00;;;;;;;38.53;19.77;;;10.70;54.70;;;;;;6128398;23;20065;-76
2023/03/02 15:50:25;;;;;;;34.03;20.38;;;10.70;54.80;;;;;;6128532;23;20089;-75
2023/03/02 15:52:51;;;;;;;38.53;20.80;;;10.70;54.90;;;;;;6128026;23;20280;-76
2023/03/02 15:55:17;;;;;;;37.50;20.15;;;10.70;55.00;;;;;;6103424;23;20002;-76
2023/03/02 15:57:42;;;;;;;39.42;21.08;;;10.60;55.30;;;;;;6129893;23;20466;-75
2023/03/02 16:00:12;;;;;;;40.90;20.23;;;10.60;55.60;;;;;;6130207;23;20013;-75
2023/03/02 16:02:38;;;;;;;35.20;20.33;;;10.60;55.60;;;;;;6130368;23;20033;-76
2023/03/02 16:05:04;;;;;;;40.70;20.45;;;10.60;55.90;;;;;;6130046;23;20005;-75
2023/03/02 16:07:30;;;;;;;43.40;20.83;;;10.60;56.20;;;;;;6130389;23;20025;-75
2023/03/02 16:09:55;;;;;;;34.67;20.35;;;10.50;56.00;;;;;;6130059;23;20005;-75
2023/03/02 16:12:23;;;;;;;44.88;21.90;;;10.50;56.20;;;;;;6103506;23;20038;-75
2023/03/02 16:14:49;;;;;;;29.23;17.60;;;10.40;56.50;;;;;;6130217;23;20002;-76
2023/03/02 16:17:17;;;;;;;42.42;23.73;;;10.40;56.80;;;;;;6129993;23;20396;-75
2023/03/02 16:19:43;;;;;;;34.10;19.20;;;10.40;57.00;;;;;;6129953;23;20347;-76
2023/03/02 16:22:08;;;;;;;39.90;21.63;;;10.30;57.40;;;;;;6130334;23;20013;-75
2023/03/02 16:24:34;;;;;;;42.85;20.17;;;10.30;57.70;;;;;;6130153;23;20006;-76
2023/03/02 16:26:59;;;;;;;37.33;19.60;;;10.30;57.80;;;;;;6129941;23;20006;-75
2023/03/02 16:29:25;;;;;;;33.72;17.63;;;10.30;57.90;;;;;;6129236;23;20002;-76
2023/03/02 16:31:51;;;;;;;30.75;20.15;;;10.30;57.90;;;;;;6129137;23;20036;-75
2023/03/02 16:34:17;;;;;;;33.03;17.63;;;10.40;58.10;;;;;;6104005;23;20093;-75
2023/03/02 16:36:43;;;;;;;35.40;19.17;;;10.30;58.30;;;;;;6103761;23;20006;-75
2023/03/02 16:39:10;;;;;;;31.55;17.08;;;10.30;58.50;;;;;;6129564;23;20006;-75
2023/03/02 16:41:38;;;;;;;32.88;17.70;;;10.30;58.70;;;;;;6103631;23;20014;-75
2023/03/02 16:44:04;;;;;;;32.75;16.83;;;10.20;58.80;;;;;;6130055;23;20010;-75
2023/03/02 16:46:35;;;;;;;34.78;18.85;;;10.30;58.80;;;;;;6103313;23;20010;-75
2023/03/02 16:49:01;;;;;;;39.30;20.25;;;10.30;59.00;;;;;;6129426;23;20068;-75
2023/03/02 16:51:27;;;;;;;31.17;17.25;;;10.30;59.20;;;;;;6103240;23;20017;-75
2023/03/02 16:53:52;;;;;;;30.30;18.10;;;10.20;59.60;;;;;;6103991;23;20002;-75
2023/03/02 16:56:18;;;;;;;34.25;16.25;;;10.20;59.70;;;;;;6129832;23;20472;-76
2023/03/02 16:58:44;;;;;;;29.60;15.52;;;10.10;59.80;;;;;;6129630;23;20462;-75
2023/03/02 17:01:13;;;;;;;30.13;16.05;;;10.10;59.80;;;;;;6103636;23;20018;-76
2023/03/02 17:03:39;;;;;;;31.17;16.83;;;10.10;59.90;;;;;;6128745;23;20025;-75
2023/03/02 17:06:06;;;;;;;30.33;15.95;;;10.00;60.20;;;;;;6128583;23;20332;-75
2023/03/02 17:08:32;;;;;;;28.83;16.73;;;9.90;60.40;;;;;;6103772;23;20006;-75
2023/03/02 17:10:58;;;;;;;34.60;15.75;;;9.90;60.60;;;;;;6128911;23;20060;-75
2023/03/02 17:13:23;;;;;;;26.88;16.30;;;9.80;60.80;;;;;;6102891;23;20010;-75
2023/03/02 17:15:49;;;;;;;29.08;16.35;;;9.80;61.00;;;;;;6102604;23;20346;-75
2023/03/02 17:18:15;;;;;;;31.25;16.90;;;9.70;61.20;;;;;;6128843;23;19998;-75
2023/03/02 17:20:41;;;;;;;38.92;20.35;;;9.70;61.20;;;;;;6128626;23;20537;-75
2023/03/02 17:23:06;;;;;;;34.20;19.35;;;9.60;61.30;;;;;;6127692;23;20387;-76
2023/03/02 17:25:32;;;;;;;29.48;17.30;;;9.50;61.30;;;;;;6102621;23;20086;-75
2023/03/02 17:27:58;;;;;;;33.95;17.95;;;9.50;61.00;;;;;;6128545;23;20082;-80
2023/03/02 17:30:24;;;;;;;29.00;17.50;;;9.40;60.80;;;;;;6102364;23;20010;-77
2023/03/02 17:32:49;;;;;;;30.63;17.38;;;9.30;59.80;;;;;;6128429;23;20013;-77
2023/03/02 17:35:15;;;;;;;27.98;15.43;;;9.30;59.70;;;;;;6128433;23;20085;-76
2023/03/02 17:37:41;;;;;;;29.48;15.93;;;9.20;59.50;;;;;;6126339;23;20032;-76
2023/03/02 17:40:10;;;;;;;22.17;13.07;;;9.20;59.10;;;;;;6102137;23;20044;-77
2023/03/02 17:42:36;;;;;;;27.67;15.65;;;9.10;59.20;;;;;;6127101;23;20040;-75
2023/03/02 17:45:01;;;;;;;24.20;14.10;;;9.00;58.90;;;;;;6128983;23;20006;-76
2023/03/02 17:47:27;;;;;;;23.88;13.85;;;9.00;59.20;;;;;;6129165;23;20013;-77
2023/03/02 17:49:55;;;;;;;33.85;15.85;;;9.00;59.40;;;;;;6129110;23;20445;-77
2023/03/02 17:52:20;;;;;;;27.45;16.40;;;9.00;59.50;;;;;;6129376;23;20077;-76
2023/03/02 17:54:46;;;;;;;32.65;16.80;;;8.90;59.30;;;;;;6103324;23;20013;-76
2023/03/02 17:57:12;;;;;;;27.20;15.65;;;8.80;59.30;;;;;;6128025;23;20454;-75
2023/03/02 17:59:38;;;;;;;30.33;14.65;;;8.70;59.30;;;;;;6102499;23;20006;-75
2023/03/02 18:02:03;;;;;;;24.38;13.38;;;8.70;58.80;;;;;;6103075;23;20006;-76
2023/03/02 18:04:29;;;;;;;26.25;14.27;;;8.70;59.00;;;;;;6129161;23;20338;-77
2023/03/02 18:06:55;;;;;;;27.42;13.82;;;8.60;58.80;;;;;;6128591;23;20001;-76
2023/03/02 18:09:21;;;;;;;27.30;14.50;;;8.60;58.80;;;;;;6128972;23;20002;-78
2023/03/02 18:11:46;;;;;;;33.05;15.00;;;8.60;59.00;;;;;;6101704;23;20002;-77
2023/03/02 18:14:17;;;;;;;28.27;15.43;;;8.60;59.20;;;;;;6128783;23;20029;-76
2023/03/02 18:16:43;;;;;;;24.75;13.68;;;8.50;59.10;;;;;;6127470;23;20461;-77